Flight Track Log - Related Links

Times and Time Zones

All times are in EDT time to prevent confusion due to time zone crossing. See the ASQ5941 flight status page for this flight to view local times or setup timezone preferences in your user account.

Time Position Orientation Groundspeed Altitude Reporting Facility
EDT Latitude Longitude Course Direction KTS MPH feet Rate Location/Type
Mon 02:54:02 PM 41.9333 -87.9000 80° East 173 199 2,600  Level Chicago TRACON
Mon 02:55:03 PM 41.9000 -87.8333 124° Southeast 227 261 4,500 1,240 Climbing Chicago TRACON
Mon 02:56:00 PM 42.0440 -87.4332 83° East  Level FlightAware
Mon 02:57:00 PM 42.0644 -87.2736 78° East  Level FlightAware
Mon 02:57:01 PM 41.8986 -87.6383 90° East 286 329 6,300  Level Chicago Center
Mon 02:58:00 PM 42.0892 -87.1150 77° East  Level FlightAware
Mon 02:58:03 PM 41.9367 -87.5361 63° Northeast 308 354 8,900  Level Chicago Center
Mon 02:59:00 PM 42.1056 -86.9550 80° East  Level FlightAware
Mon 02:59:05 PM 41.9753 -87.4358 63° Northeast 305 351 10,800  Level Chicago Center
Mon 03:00:08 PM 42.0161 -87.3222 64° Northeast 336 387 12,300 1,392 Climbing Chicago Center
Mon 03:01:10 PM 42.0608 -87.2044 63° Northeast 352 405 13,700 1,122 Climbing Chicago Center
Mon 03:02:11 PM 42.1069 -87.0761 64° Northeast 379 436 14,600 1,171 Climbing Chicago Center
Mon 03:03:13 PM 42.1186 -86.8989 85° East 396 456 16,100 1,306 Climbing Chicago Center
Mon 03:04:15 PM 42.1239 -86.7456 87° East 406 467 17,300 1,113 Climbing Chicago Center
Mon 03:05:17 PM 42.1292 -86.5997 87° East 417 480 18,400 1,065 Climbing Chicago Center
Mon 03:06:19 PM 42.1350 -86.4406 87° East 425 489 19,500 1,210 Climbing Chicago Center
Mon 03:07:21 PM 42.1411 -86.2444 88° East 435 501 20,900 1,210 Climbing Chicago Center
Mon 03:08:23 PM 42.1444 -86.0769 88° East 445 512 22,000 1,065 Climbing Chicago Center
Mon 03:09:25 PM 42.1431 -85.9242 91° East 445 512 23,100 1,065 Climbing Chicago Center
Mon 03:10:27 PM 42.1417 -85.7572 91° East 447 514 24,200 1,161 Climbing Chicago Center
Mon 03:11:29 PM 42.1397 -85.5550 91° East 451 519 25,500 1,210 Climbing Chicago Center
Mon 03:12:31 PM 42.1367 -85.3881 91° East 449 517 26,700 1,065 Climbing Chicago Center
Mon 03:13:33 PM 42.1356 -85.2200 90° East 450 518 27,700 976 Climbing Chicago Center
Mon 03:14:34 PM 42.1344 -85.0483 90° East 459 528 28,700 1,024 Climbing Chicago Center
Mon 03:15:36 PM 42.1317 -84.8808 91° East 453 521 29,800 1,016 Climbing Chicago Center
Mon 03:16:38 PM 42.1281 -84.7117 92° East 453 521 30,800 581 Climbing Chicago Center
Mon 03:17:40 PM 42.1242 -84.5019 91° East 468 539 31,000 97 Climbing Chicago Center
Mon 03:18:42 PM 42.1411 -84.3167 83° East 498 573 31,000  Level Chicago Center
Mon 03:19:39 PM 42.1567 -84.1492 83° East 494 568 31,000  Level Cleveland Center
Mon 03:20:39 PM 42.1792 -83.9597 81° East 502 578 31,000 450 Level Cleveland Center
Mon 03:21:39 PM 42.1992 -83.7731 82° East 507 583 31,900 1,000 Climbing Cleveland Center
Mon 03:22:39 PM 42.2189 -83.5861 82° East 496 571 33,000 550 Climbing Cleveland Center
Mon 03:23:39 PM 42.2297 -83.3986 85° East 503 579 33,000  Level Cleveland Center
Mon 03:24:39 PM 42.2306 -83.1828 90° East 503 579 33,000  Level Cleveland Center
Mon 03:25:39 PM 42.2308 -82.9892 90° East 508 585 33,000  Level Cleveland Center
Mon 03:26:39 PM 42.2347 -82.7958 88° East 513 590 33,000  Level Cleveland Center
Mon 03:27:39 PM 42.2319 -82.5994 91° East 518 596 33,000  Level Cleveland Center
Mon 03:28:39 PM 42.2331 -82.4089 89° East 512 589 33,000  Level Cleveland Center
Mon 03:29:39 PM 42.2339 -82.2153 90° East 512 589 33,000  Level Cleveland Center
Mon 03:30:39 PM 42.2344 -82.0217 90° East 512 589 33,000  Level Cleveland Center
Mon 03:31:39 PM 42.2347 -81.8283 90° East 517 595 33,000  Level Cleveland Center
Mon 03:32:39 PM 42.2322 -81.6375 91° East 512 589 33,000  Level Cleveland Center
Mon 03:33:39 PM 42.2317 -81.4608 90° East 518 596 33,000  Level Cleveland Center
Mon 03:34:39 PM 42.2289 -81.2703 91° East 513 590 33,000  Level Cleveland Center
Mon 03:35:39 PM 42.2194 -81.0739 94° East 518 596 33,000  Level Cleveland Center
Mon 03:36:39 PM 42.1972 -80.8831 99° East 518 596 33,000  Level Cleveland Center
Mon 03:37:39 PM 42.1767 -80.6869 98° East 524 603 33,000  Level Cleveland Center
Mon 03:38:39 PM 42.1517 -80.4767 99° East 524 603 33,000  Level Cleveland Center
Mon 03:39:39 PM 42.1283 -80.2836 99° East 524 603 33,000  Level Cleveland Center
Mon 03:40:39 PM 42.1069 -80.0961 99° East 524 603 33,000  Level Cleveland Center
Mon 03:41:39 PM 42.0831 -79.9061 100° East 517 595 33,000  Level Cleveland Center
Mon 03:42:39 PM 42.0589 -79.7133 100° East 517 595 33,000  Level Cleveland Center
Mon 03:43:39 PM 42.0342 -79.5181 100° East 523 602 33,000 -367 Level Cleveland Center
Mon 03:45:39 PM 41.9842 -79.1361 100° East 523 602 31,900 -833 Descending Cleveland Center
Mon 03:46:39 PM 41.9608 -78.9525 100° East 512 589 30,500 -1,450 Descending Cleveland Center
Mon 03:47:39 PM 41.9353 -78.7661 100° East 507 583 29,000 -1,250 Descending Cleveland Center
Mon 03:48:39 PM 41.9111 -78.5769 100° East 507 583 28,000 -500 Descending Cleveland Center
Mon 03:49:39 PM 41.8872 -78.3964 100° East 507 583 28,000  Level Cleveland Center
Mon 03:50:39 PM 41.8583 -78.2050 101° East 502 578 28,000 -516 Level Cleveland Center
Mon 03:51:47 PM 41.8306 -78.0003 100° East 498 573 26,900 -1,395 Descending New Center
Mon 03:52:48 PM 41.8058 -77.8194 100° East 503 579 25,000 -1,721 Descending New Center
Mon 03:53:49 PM 41.7839 -77.6642 101° East 490 564 23,400 -1,008 Descending New Center
Mon 03:54:47 PM 41.7603 -77.4947 101° East 471 542 23,000 -202 Descending New Center
Mon 03:55:48 PM 41.7344 -77.3225 101° East 471 542 23,000 -1,008 Level New Center
Mon 03:56:46 PM 41.7069 -77.1364 101° East 466 536 21,000 -2,118 Descending New Center
Mon 03:57:47 PM 41.6839 -76.9814 101° East 448 516 18,800 -2,115 Descending New Center
Mon 03:58:48 PM 41.6589 -76.8208 102° East 438 504 16,700 -1,736 Descending New Center
Mon 03:59:48 PM 41.6369 -76.6800 102° East 425 489 15,300 -1,627 Descending New Center
Mon 04:00:46 PM 41.6181 -76.5536 101° East 366 421 13,500 -1,780 Descending New Center
Mon 04:01:46 PM 41.5986 -76.4353 102° East 335 386 11,800 -1,140 Descending New Center
Mon 04:02:47 PM 41.5828 -76.3342 102° East 319 367 11,200 -1,033 Descending New Center
Mon 04:03:48 PM 41.5650 -76.2217 102° East 291 335 9,700 -1,289 Descending New Center
Mon 04:04:48 PM 41.5444 -76.1258 106° East 272 313 8,600 -1,119 Descending New Center
Mon 04:05:46 PM 41.5192 -76.0353 110° East 257 296 7,500 -1,059 Descending New Center
Mon 04:06:47 PM 41.5064 -75.9511 101° East 257 296 6,500 -1,190 Descending New Center
Mon 04:07:47 PM 41.4897 -75.8528 103° East 257 296 5,100 -1,311 Descending New Center
Mon 04:08:46 PM 41.4581 -75.7647 116° Southeast 263 303 3,900 -1,220 Descending New Center

Login

Don't have an account? Register now (free) for customized features, flight alerts, and more!